sensor_id;sensor_type;location;lat;lon;timestamp;P1;durP1;ratioP1;P2;durP2;ratioP2
74577;SDS011;75151;49.086;33.418;2024-02-28T00:02:02;15.55;;;6.00;;
74577;SDS011;75151;49.086;33.418;2024-02-28T00:04:29;17.40;;;5.63;;
74577;SDS011;75151;49.086;33.418;2024-02-28T00:06:56;15.77;;;6.03;;
74577;SDS011;75151;49.086;33.418;2024-02-28T00:09:23;17.60;;;6.07;;
74577;SDS011;75151;49.086;33.418;2024-02-28T00:11:50;15.32;;;5.60;;
74577;SDS011;75151;49.086;33.418;2024-02-28T00:14:17;12.90;;;5.20;;
74577;SDS011;75151;49.086;33.418;2024-02-28T00:16:44;16.33;;;5.38;;
74577;SDS011;75151;49.086;33.418;2024-02-28T00:19:12;16.73;;;5.78;;
74577;SDS011;75151;49.086;33.418;2024-02-28T00:21:39;17.45;;;6.13;;
74577;SDS011;75151;49.086;33.418;2024-02-28T00:24:07;18.30;;;5.57;;
74577;SDS011;75151;49.086;33.418;2024-02-28T00:26:35;20.00;;;5.90;;
74577;SDS011;75151;49.086;33.418;2024-02-28T00:29:01;15.60;;;6.18;;
74577;SDS011;75151;49.086;33.418;2024-02-28T00:31:28;17.70;;;5.97;;
74577;SDS011;75151;49.086;33.418;2024-02-28T00:33:55;11.70;;;4.85;;
74577;SDS011;75151;49.086;33.418;2024-02-28T00:36:22;19.85;;;5.68;;
74577;SDS011;75151;49.086;33.418;2024-02-28T00:38:49;13.18;;;5.50;;
74577;SDS011;75151;49.086;33.418;2024-02-28T00:41:16;12.18;;;4.60;;
74577;SDS011;75151;49.086;33.418;2024-02-28T00:43:43;15.80;;;5.40;;
74577;SDS011;75151;49.086;33.418;2024-02-28T00:46:09;21.27;;;5.40;;
74577;SDS011;75151;49.086;33.418;2024-02-28T00:48:38;14.25;;;5.03;;
74577;SDS011;75151;49.086;33.418;2024-02-28T00:51:06;20.60;;;5.10;;
74577;SDS011;75151;49.086;33.418;2024-02-28T00:53:36;17.67;;;5.40;;
74577;SDS011;75151;49.086;33.418;2024-02-28T00:56:03;14.40;;;4.95;;
74577;SDS011;75151;49.086;33.418;2024-02-28T00:58:30;17.00;;;5.97;;
74577;SDS011;75151;49.086;33.418;2024-02-28T01:00:57;14.35;;;4.95;;
74577;SDS011;75151;49.086;33.418;2024-02-28T01:03:24;18.55;;;5.22;;
74577;SDS011;75151;49.086;33.418;2024-02-28T01:05:51;11.65;;;5.30;;
74577;SDS011;75151;49.086;33.418;2024-02-28T01:08:18;11.93;;;4.93;;
74577;SDS011;75151;49.086;33.418;2024-02-28T01:10:45;18.17;;;4.75;;
74577;SDS011;75151;49.086;33.418;2024-02-28T01:13:12;18.83;;;4.82;;
74577;SDS011;75151;49.086;33.418;2024-02-28T01:15:42;14.90;;;4.38;;
74577;SDS011;75151;49.086;33.418;2024-02-28T01:18:09;10.95;;;4.35;;
74577;SDS011;75151;49.086;33.418;2024-02-28T01:20:37;15.00;;;4.22;;
74577;SDS011;75151;49.086;33.418;2024-02-28T01:23:04;11.38;;;4.10;;
74577;SDS011;75151;49.086;33.418;2024-02-28T01:25:31;12.32;;;4.03;;
74577;SDS011;75151;49.086;33.418;2024-02-28T01:27:58;13.35;;;3.88;;
74577;SDS011;75151;49.086;33.418;2024-02-28T01:30:25;13.73;;;4.25;;
74577;SDS011;75151;49.086;33.418;2024-02-28T01:32:52;13.57;;;4.13;;
74577;SDS011;75151;49.086;33.418;2024-02-28T01:35:19;10.10;;;3.42;;
74577;SDS011;75151;49.086;33.418;2024-02-28T01:37:46;10.02;;;3.65;;
74577;SDS011;75151;49.086;33.418;2024-02-28T01:40:14;15.40;;;4.72;;
74577;SDS011;75151;49.086;33.418;2024-02-28T01:42:41;15.77;;;4.03;;
74577;SDS011;75151;49.086;33.418;2024-02-28T01:45:09;15.07;;;4.43;;
74577;SDS011;75151;49.086;33.418;2024-02-28T01:47:40;12.52;;;4.30;;
74577;SDS011;75151;49.086;33.418;2024-02-28T01:50:09;11.13;;;4.40;;
74577;SDS011;75151;49.086;33.418;2024-02-28T01:52:38;17.23;;;5.20;;
74577;SDS011;75151;49.086;33.418;2024-02-28T01:55:06;14.52;;;4.85;;
74577;SDS011;75151;49.086;33.418;2024-02-28T01:57:33;9.18;;;3.80;;
74577;SDS011;75151;49.086;33.418;2024-02-28T02:00:04;12.07;;;3.70;;
74577;SDS011;75151;49.086;33.418;2024-02-28T02:02:34;14.70;;;3.70;;
74577;SDS011;75151;49.086;33.418;2024-02-28T02:05:01;10.07;;;3.40;;
74577;SDS011;75151;49.086;33.418;2024-02-28T02:07:28;9.68;;;3.33;;
74577;SDS011;75151;49.086;33.418;2024-02-28T02:09:55;8.75;;;3.22;;
74577;SDS011;75151;49.086;33.418;2024-02-28T02:12:22;9.18;;;3.42;;
74577;SDS011;75151;49.086;33.418;2024-02-28T02:14:49;9.60;;;3.33;;
74577;SDS011;75151;49.086;33.418;2024-02-28T02:17:16;13.57;;;4.15;;
74577;SDS011;75151;49.086;33.418;2024-02-28T02:19:43;10.25;;;3.72;;
74577;SDS011;75151;49.086;33.418;2024-02-28T02:22:10;9.95;;;4.32;;
74577;SDS011;75151;49.086;33.418;2024-02-28T02:24:41;11.30;;;3.88;;
74577;SDS011;75151;49.086;33.418;2024-02-28T02:27:08;13.70;;;3.90;;
74577;SDS011;75151;49.086;33.418;2024-02-28T02:29:35;16.80;;;4.80;;
74577;SDS011;75151;49.086;33.418;2024-02-28T02:32:02;11.70;;;4.95;;
74577;SDS011;75151;49.086;33.418;2024-02-28T02:34:28;10.43;;;4.40;;
74577;SDS011;75151;49.086;33.418;2024-02-28T02:36:55;9.35;;;4.10;;
74577;SDS011;75151;49.086;33.418;2024-02-28T02:39:22;9.48;;;3.55;;
74577;SDS011;75151;49.086;33.418;2024-02-28T02:41:49;15.82;;;3.90;;
74577;SDS011;75151;49.086;33.418;2024-02-28T02:44:16;6.38;;;3.22;;
74577;SDS011;75151;49.086;33.418;2024-02-28T02:46:43;8.07;;;3.35;;
74577;SDS011;75151;49.086;33.418;2024-02-28T02:49:10;13.00;;;3.75;;
74577;SDS011;75151;49.086;33.418;2024-02-28T02:51:37;15.20;;;3.47;;
74577;SDS011;75151;49.086;33.418;2024-02-28T02:54:04;15.35;;;3.80;;
74577;SDS011;75151;49.086;33.418;2024-02-28T02:56:31;22.48;;;5.10;;
74577;SDS011;75151;49.086;33.418;2024-02-28T02:58:57;18.52;;;5.60;;
74577;SDS011;75151;49.086;33.418;2024-02-28T03:01:24;13.18;;;5.03;;
74577;SDS011;75151;49.086;33.418;2024-02-28T03:03:51;14.23;;;5.50;;
74577;SDS011;75151;49.086;33.418;2024-02-28T03:06:19;22.08;;;6.35;;
74577;SDS011;75151;49.086;33.418;2024-02-28T03:08:46;18.60;;;5.72;;
74577;SDS011;75151;49.086;33.418;2024-02-28T03:11:12;17.70;;;6.22;;
74577;SDS011;75151;49.086;33.418;2024-02-28T03:13:39;18.13;;;5.80;;
74577;SDS011;75151;49.086;33.418;2024-02-28T03:16:06;22.15;;;6.40;;
74577;SDS011;75151;49.086;33.418;2024-02-28T03:18:33;22.48;;;6.68;;
74577;SDS011;75151;49.086;33.418;2024-02-28T03:21:00;15.88;;;6.57;;
74577;SDS011;75151;49.086;33.418;2024-02-28T03:23:28;16.88;;;7.40;;
74577;SDS011;75151;49.086;33.418;2024-02-28T03:25:55;16.75;;;7.03;;
74577;SDS011;75151;49.086;33.418;2024-02-28T03:28:22;34.50;;;7.35;;
74577;SDS011;75151;49.086;33.418;2024-02-28T03:30:48;19.10;;;6.47;;
74577;SDS011;75151;49.086;33.418;2024-02-28T03:33:15;19.30;;;7.03;;
74577;SDS011;75151;49.086;33.418;2024-02-28T03:35:42;20.52;;;8.48;;
74577;SDS011;75151;49.086;33.418;2024-02-28T03:38:09;33.20;;;12.88;;
74577;SDS011;75151;49.086;33.418;2024-02-28T03:40:36;30.23;;;12.38;;
74577;SDS011;75151;49.086;33.418;2024-02-28T03:43:02;32.95;;;12.70;;
74577;SDS011;75151;49.086;33.418;2024-02-28T03:45:29;27.77;;;9.88;;
74577;SDS011;75151;49.086;33.418;2024-02-28T03:47:56;27.17;;;9.15;;
74577;SDS011;75151;49.086;33.418;2024-02-28T03:50:23;15.35;;;6.68;;
74577;SDS011;75151;49.086;33.418;2024-02-28T03:52:50;21.45;;;7.05;;
74577;SDS011;75151;49.086;33.418;2024-02-28T03:55:17;26.92;;;7.13;;
74577;SDS011;75151;49.086;33.418;2024-02-28T03:57:46;17.83;;;6.50;;
74577;SDS011;75151;49.086;33.418;2024-02-28T04:00:14;17.00;;;6.95;;
74577;SDS011;75151;49.086;33.418;2024-02-28T04:02:41;16.08;;;6.72;;
74577;SDS011;75151;49.086;33.418;2024-02-28T04:05:08;22.55;;;7.82;;
74577;SDS011;75151;49.086;33.418;2024-02-28T04:07:35;16.27;;;6.75;;
74577;SDS011;75151;49.086;33.418;2024-02-28T04:10:02;18.75;;;6.57;;
74577;SDS011;75151;49.086;33.418;2024-02-28T04:12:31;16.80;;;6.25;;
74577;SDS011;75151;49.086;33.418;2024-02-28T04:14:59;16.92;;;5.55;;
74577;SDS011;75151;49.086;33.418;2024-02-28T04:17:26;23.08;;;6.90;;
74577;SDS011;75151;49.086;33.418;2024-02-28T04:19:53;17.25;;;7.05;;
74577;SDS011;75151;49.086;33.418;2024-02-28T04:22:19;24.70;;;7.18;;
74577;SDS011;75151;49.086;33.418;2024-02-28T04:24:46;25.58;;;7.72;;
74577;SDS011;75151;49.086;33.418;2024-02-28T04:27:13;22.83;;;8.57;;
74577;SDS011;75151;49.086;33.418;2024-02-28T04:29:40;22.17;;;8.57;;
74577;SDS011;75151;49.086;33.418;2024-02-28T04:32:07;19.63;;;7.97;;
74577;SDS011;75151;49.086;33.418;2024-02-28T04:34:35;22.13;;;7.22;;
74577;SDS011;75151;49.086;33.418;2024-02-28T04:37:02;22.00;;;7.03;;
74577;SDS011;75151;49.086;33.418;2024-02-28T04:39:29;23.30;;;7.20;;
74577;SDS011;75151;49.086;33.418;2024-02-28T04:41:56;22.83;;;6.88;;
74577;SDS011;75151;49.086;33.418;2024-02-28T04:44:23;22.83;;;7.53;;
74577;SDS011;75151;49.086;33.418;2024-02-28T04:46:49;21.80;;;7.25;;
74577;SDS011;75151;49.086;33.418;2024-02-28T04:49:16;27.52;;;7.18;;
74577;SDS011;75151;49.086;33.418;2024-02-28T04:51:43;30.05;;;8.07;;
74577;SDS011;75151;49.086;33.418;2024-02-28T04:54:10;23.13;;;7.95;;
74577;SDS011;75151;49.086;33.418;2024-02-28T04:56:40;29.35;;;8.75;;
74577;SDS011;75151;49.086;33.418;2024-02-28T04:59:08;27.00;;;8.00;;
74577;SDS011;75151;49.086;33.418;2024-02-28T05:01:37;27.38;;;7.05;;
74577;SDS011;75151;49.086;33.418;2024-02-28T05:04:06;24.70;;;8.45;;
74577;SDS011;75151;49.086;33.418;2024-02-28T05:06:34;26.38;;;7.93;;
74577;SDS011;75151;49.086;33.418;2024-02-28T05:09:05;30.10;;;9.45;;
74577;SDS011;75151;49.086;33.418;2024-02-28T05:11:32;20.50;;;8.80;;
74577;SDS011;75151;49.086;33.418;2024-02-28T05:13:59;26.25;;;8.55;;
74577;SDS011;75151;49.086;33.418;2024-02-28T05:16:26;17.20;;;6.13;;
74577;SDS011;75151;49.086;33.418;2024-02-28T05:18:53;28.45;;;8.63;;
74577;SDS011;75151;49.086;33.418;2024-02-28T05:21:20;23.83;;;7.15;;
74577;SDS011;75151;49.086;33.418;2024-02-28T05:23:47;27.30;;;8.00;;
74577;SDS011;75151;49.086;33.418;2024-02-28T05:26:14;21.77;;;7.72;;
74577;SDS011;75151;49.086;33.418;2024-02-28T05:28:41;20.55;;;7.47;;
74577;SDS011;75151;49.086;33.418;2024-02-28T05:31:24;25.27;;;8.13;;
74577;SDS011;75151;49.086;33.418;2024-02-28T05:33:55;34.35;;;6.88;;
74577;SDS011;75151;49.086;33.418;2024-02-28T05:36:23;18.08;;;7.65;;
74577;SDS011;75151;49.086;33.418;2024-02-28T05:38:51;33.00;;;8.88;;
74577;SDS011;75151;49.086;33.418;2024-02-28T05:41:20;33.63;;;8.50;;
74577;SDS011;75151;49.086;33.418;2024-02-28T05:43:47;20.02;;;7.35;;
74577;SDS011;75151;49.086;33.418;2024-02-28T05:46:14;22.65;;;7.90;;
74577;SDS011;75151;49.086;33.418;2024-02-28T05:48:42;32.05;;;9.43;;
74577;SDS011;75151;49.086;33.418;2024-02-28T05:51:10;33.30;;;8.40;;
74577;SDS011;75151;49.086;33.418;2024-02-28T05:53:38;21.67;;;7.72;;
74577;SDS011;75151;49.086;33.418;2024-02-28T05:56:07;27.48;;;8.38;;
74577;SDS011;75151;49.086;33.418;2024-02-28T05:58:42;29.63;;;9.13;;
74577;SDS011;75151;49.086;33.418;2024-02-28T06:01:10;25.67;;;7.68;;
74577;SDS011;75151;49.086;33.418;2024-02-28T06:03:38;22.55;;;8.25;;
74577;SDS011;75151;49.086;33.418;2024-02-28T06:06:05;34.10;;;8.05;;
74577;SDS011;75151;49.086;33.418;2024-02-28T06:08:37;18.55;;;6.43;;
74577;SDS011;75151;49.086;33.418;2024-02-28T06:11:04;28.40;;;7.85;;
74577;SDS011;75151;49.086;33.418;2024-02-28T06:13:33;28.23;;;8.35;;
74577;SDS011;75151;49.086;33.418;2024-02-28T06:16:00;31.33;;;7.85;;
74577;SDS011;75151;49.086;33.418;2024-02-28T06:18:27;23.98;;;8.25;;
74577;SDS011;75151;49.086;33.418;2024-02-28T06:20:54;33.22;;;8.48;;
74577;SDS011;75151;49.086;33.418;2024-02-28T06:23:22;23.88;;;8.10;;
74577;SDS011;75151;49.086;33.418;2024-02-28T06:25:55;28.20;;;7.72;;
74577;SDS011;75151;49.086;33.418;2024-02-28T06:28:22;26.73;;;7.43;;
74577;SDS011;75151;49.086;33.418;2024-02-28T06:30:49;38.72;;;7.13;;
74577;SDS011;75151;49.086;33.418;2024-02-28T06:33:16;29.13;;;8.35;;
74577;SDS011;75151;49.086;33.418;2024-02-28T06:35:43;20.83;;;7.32;;
74577;SDS011;75151;49.086;33.418;2024-02-28T06:38:10;28.60;;;7.80;;
74577;SDS011;75151;49.086;33.418;2024-02-28T06:40:37;31.95;;;8.23;;
74577;SDS011;75151;49.086;33.418;2024-02-28T06:43:04;21.00;;;6.47;;
74577;SDS011;75151;49.086;33.418;2024-02-28T06:45:31;26.42;;;8.13;;
74577;SDS011;75151;49.086;33.418;2024-02-28T06:47:58;26.75;;;8.00;;
74577;SDS011;75151;49.086;33.418;2024-02-28T06:50:25;22.45;;;7.90;;
74577;SDS011;75151;49.086;33.418;2024-02-28T06:52:52;24.70;;;7.45;;
74577;SDS011;75151;49.086;33.418;2024-02-28T06:55:20;25.80;;;7.35;;
74577;SDS011;75151;49.086;33.418;2024-02-28T06:57:48;34.15;;;8.30;;
74577;SDS011;75151;49.086;33.418;2024-02-28T07:00:15;23.20;;;6.78;;
74577;SDS011;75151;49.086;33.418;2024-02-28T07:02:43;35.17;;;8.00;;
74577;SDS011;75151;49.086;33.418;2024-02-28T07:05:09;29.08;;;7.88;;
74577;SDS011;75151;49.086;33.418;2024-02-28T07:07:37;22.73;;;7.10;;
74577;SDS011;75151;49.086;33.418;2024-02-28T07:10:04;31.80;;;8.20;;
74577;SDS011;75151;49.086;33.418;2024-02-28T07:12:31;28.02;;;7.97;;
74577;SDS011;75151;49.086;33.418;2024-02-28T07:14:58;22.88;;;7.15;;
74577;SDS011;75151;49.086;33.418;2024-02-28T07:17:25;31.42;;;8.43;;
74577;SDS011;75151;49.086;33.418;2024-02-28T07:19:52;23.30;;;7.28;;
74577;SDS011;75151;49.086;33.418;2024-02-28T07:22:18;23.08;;;6.75;;
74577;SDS011;75151;49.086;33.418;2024-02-28T07:24:45;25.40;;;6.95;;
74577;SDS011;75151;49.086;33.418;2024-02-28T07:27:12;26.05;;;6.57;;
74577;SDS011;75151;49.086;33.418;2024-02-28T07:29:39;32.45;;;8.05;;
74577;SDS011;75151;49.086;33.418;2024-02-28T07:32:06;24.38;;;7.45;;
74577;SDS011;75151;49.086;33.418;2024-02-28T07:34:33;22.70;;;7.18;;
74577;SDS011;75151;49.086;33.418;2024-02-28T07:37:00;19.10;;;7.38;;
74577;SDS011;75151;49.086;33.418;2024-02-28T07:39:27;22.65;;;7.63;;
74577;SDS011;75151;49.086;33.418;2024-02-28T07:41:54;27.60;;;6.97;;
74577;SDS011;75151;49.086;33.418;2024-02-28T07:44:22;22.10;;;7.38;;
74577;SDS011;75151;49.086;33.418;2024-02-28T07:46:49;21.38;;;7.45;;
74577;SDS011;75151;49.086;33.418;2024-02-28T07:49:19;25.25;;;8.10;;
74577;SDS011;75151;49.086;33.418;2024-02-28T07:51:45;30.67;;;6.85;;
74577;SDS011;75151;49.086;33.418;2024-02-28T07:54:12;20.80;;;6.88;;
74577;SDS011;75151;49.086;33.418;2024-02-28T07:56:39;25.63;;;6.60;;
74577;SDS011;75151;49.086;33.418;2024-02-28T07:59:06;32.13;;;7.38;;
74577;SDS011;75151;49.086;33.418;2024-02-28T08:01:33;24.80;;;8.27;;
74577;SDS011;75151;49.086;33.418;2024-02-28T08:04:00;22.58;;;7.75;;
74577;SDS011;75151;49.086;33.418;2024-02-28T08:06:29;25.50;;;8.50;;
74577;SDS011;75151;49.086;33.418;2024-02-28T08:08:56;15.65;;;7.38;;
74577;SDS011;75151;49.086;33.418;2024-02-28T08:11:22;35.97;;;7.68;;
74577;SDS011;75151;49.086;33.418;2024-02-28T08:13:50;22.30;;;7.45;;
74577;SDS011;75151;49.086;33.418;2024-02-28T08:16:17;29.77;;;8.70;;
74577;SDS011;75151;49.086;33.418;2024-02-28T08:18:44;21.25;;;7.07;;
74577;SDS011;75151;49.086;33.418;2024-02-28T08:21:11;31.48;;;8.60;;
74577;SDS011;75151;49.086;33.418;2024-02-28T08:23:38;23.52;;;7.07;;
74577;SDS011;75151;49.086;33.418;2024-02-28T08:26:05;30.45;;;7.65;;
74577;SDS011;75151;49.086;33.418;2024-02-28T08:28:31;27.67;;;7.07;;
74577;SDS011;75151;49.086;33.418;2024-02-28T08:30:58;31.02;;;7.07;;
74577;SDS011;75151;49.086;33.418;2024-02-28T08:33:25;22.88;;;6.90;;
74577;SDS011;75151;49.086;33.418;2024-02-28T08:35:53;17.58;;;6.78;;
74577;SDS011;75151;49.086;33.418;2024-02-28T08:38:20;28.35;;;7.13;;
74577;SDS011;75151;49.086;33.418;2024-02-28T08:40:47;24.30;;;7.38;;
74577;SDS011;75151;49.086;33.418;2024-02-28T08:43:14;27.60;;;7.03;;
74577;SDS011;75151;49.086;33.418;2024-02-28T08:45:40;33.05;;;8.70;;
74577;SDS011;75151;49.086;33.418;2024-02-28T08:48:07;27.08;;;8.13;;
74577;SDS011;75151;49.086;33.418;2024-02-28T08:50:34;26.88;;;6.75;;
74577;SDS011;75151;49.086;33.418;2024-02-28T08:53:02;38.33;;;8.05;;
74577;SDS011;75151;49.086;33.418;2024-02-28T08:55:29;27.00;;;6.30;;
74577;SDS011;75151;49.086;33.418;2024-02-28T08:57:57;30.33;;;6.88;;
74577;SDS011;75151;49.086;33.418;2024-02-28T09:00:24;28.05;;;6.43;;
74577;SDS011;75151;49.086;33.418;2024-02-28T09:02:52;25.48;;;6.93;;
74577;SDS011;75151;49.086;33.418;2024-02-28T09:05:18;25.85;;;7.32;;
74577;SDS011;75151;49.086;33.418;2024-02-28T09:07:45;26.38;;;7.03;;
74577;SDS011;75151;49.086;33.418;2024-02-28T09:10:17;24.65;;;6.78;;
74577;SDS011;75151;49.086;33.418;2024-02-28T09:12:51;28.02;;;6.82;;
74577;SDS011;75151;49.086;33.418;2024-02-28T09:15:18;37.05;;;8.25;;
74577;SDS011;75151;49.086;33.418;2024-02-28T09:17:45;29.17;;;7.78;;
74577;SDS011;75151;49.086;33.418;2024-02-28T09:20:18;38.15;;;7.95;;
74577;SDS011;75151;49.086;33.418;2024-02-28T09:22:45;34.63;;;8.52;;
74577;SDS011;75151;49.086;33.418;2024-02-28T09:25:12;24.85;;;7.95;;
74577;SDS011;75151;49.086;33.418;2024-02-28T09:27:38;30.95;;;7.95;;
74577;SDS011;75151;49.086;33.418;2024-02-28T09:30:05;30.05;;;7.43;;
74577;SDS011;75151;49.086;33.418;2024-02-28T09:32:33;27.42;;;7.68;;
74577;SDS011;75151;49.086;33.418;2024-02-28T09:34:59;21.58;;;8.20;;
74577;SDS011;75151;49.086;33.418;2024-02-28T09:37:26;33.08;;;7.32;;
74577;SDS011;75151;49.086;33.418;2024-02-28T09:39:54;25.85;;;6.80;;
74577;SDS011;75151;49.086;33.418;2024-02-28T09:42:21;31.67;;;8.57;;
74577;SDS011;75151;49.086;33.418;2024-02-28T09:44:48;68.68;;;23.52;;
74577;SDS011;75151;49.086;33.418;2024-02-28T09:47:15;43.35;;;8.65;;
74577;SDS011;75151;49.086;33.418;2024-02-28T09:49:42;42.60;;;8.52;;
74577;SDS011;75151;49.086;33.418;2024-02-28T09:52:09;38.80;;;8.98;;
74577;SDS011;75151;49.086;33.418;2024-02-28T09:54:36;31.95;;;7.22;;
74577;SDS011;75151;49.086;33.418;2024-02-28T09:57:03;23.67;;;7.00;;
74577;SDS011;75151;49.086;33.418;2024-02-28T09:59:31;24.33;;;6.35;;
74577;SDS011;75151;49.086;33.418;2024-02-28T10:02:17;17.23;;;6.68;;
74577;SDS011;75151;49.086;33.418;2024-02-28T10:04:46;35.83;;;8.10;;
74577;SDS011;75151;49.086;33.418;2024-02-28T10:07:13;25.02;;;6.97;;
74577;SDS011;75151;49.086;33.418;2024-02-28T10:09:41;28.42;;;6.80;;
74577;SDS011;75151;49.086;33.418;2024-02-28T10:12:09;21.42;;;6.93;;
74577;SDS011;75151;49.086;33.418;2024-02-28T10:14:36;30.50;;;7.50;;
74577;SDS011;75151;49.086;33.418;2024-02-28T10:17:03;23.27;;;6.80;;
74577;SDS011;75151;49.086;33.418;2024-02-28T10:19:30;32.50;;;7.18;;
74577;SDS011;75151;49.086;33.418;2024-02-28T10:21:57;25.70;;;6.95;;
74577;SDS011;75151;49.086;33.418;2024-02-28T10:24:25;26.08;;;7.00;;
74577;SDS011;75151;49.086;33.418;2024-02-28T10:26:52;31.90;;;7.93;;
74577;SDS011;75151;49.086;33.418;2024-02-28T10:29:22;26.55;;;7.63;;
74577;SDS011;75151;49.086;33.418;2024-02-28T10:31:50;26.23;;;6.82;;
74577;SDS011;75151;49.086;33.418;2024-02-28T10:34:18;27.10;;;7.57;;
74577;SDS011;75151;49.086;33.418;2024-02-28T10:36:45;27.63;;;7.10;;
74577;SDS011;75151;49.086;33.418;2024-02-28T10:39:13;23.63;;;6.95;;
74577;SDS011;75151;49.086;33.418;2024-02-28T10:41:41;25.35;;;5.82;;
74577;SDS011;75151;49.086;33.418;2024-02-28T10:44:09;29.40;;;6.90;;
74577;SDS011;75151;49.086;33.418;2024-02-28T10:46:39;24.63;;;7.50;;
74577;SDS011;75151;49.086;33.418;2024-02-28T10:49:07;28.85;;;7.07;;
74577;SDS011;75151;49.086;33.418;2024-02-28T10:51:36;26.15;;;5.85;;
74577;SDS011;75151;49.086;33.418;2024-02-28T10:54:10;31.58;;;6.03;;
74577;SDS011;75151;49.086;33.418;2024-02-28T10:56:40;26.45;;;6.20;;
74577;SDS011;75151;49.086;33.418;2024-02-28T10:59:09;23.15;;;6.93;;
74577;SDS011;75151;49.086;33.418;2024-02-28T11:01:38;33.53;;;7.22;;
74577;SDS011;75151;49.086;33.418;2024-02-28T11:04:12;26.33;;;5.80;;
74577;SDS011;75151;49.086;33.418;2024-02-28T11:06:53;33.03;;;7.32;;
74577;SDS011;75151;49.086;33.418;2024-02-28T11:09:24;25.23;;;6.32;;
74577;SDS011;75151;49.086;33.418;2024-02-28T11:11:53;21.17;;;5.13;;
74577;SDS011;75151;49.086;33.418;2024-02-28T11:14:20;19.00;;;5.65;;
74577;SDS011;75151;49.086;33.418;2024-02-28T11:16:59;53.33;;;7.03;;
74577;SDS011;75151;49.086;33.418;2024-02-28T11:19:28;24.88;;;7.03;;
74577;SDS011;75151;49.086;33.418;2024-02-28T11:21:57;23.85;;;5.60;;
74577;SDS011;75151;49.086;33.418;2024-02-28T11:26:55;20.83;;;6.53;;
74577;SDS011;75151;49.086;33.418;2024-02-28T11:29:23;41.72;;;7.18;;
74577;SDS011;75151;49.086;33.418;2024-02-28T11:31:55;23.52;;;7.70;;
74577;SDS011;75151;49.086;33.418;2024-02-28T11:34:22;24.30;;;6.32;;
74577;SDS011;75151;49.086;33.418;2024-02-28T11:36:49;30.17;;;7.35;;
74577;SDS011;75151;49.086;33.418;2024-02-28T11:39:17;29.73;;;6.72;;
74577;SDS011;75151;49.086;33.418;2024-02-28T11:41:46;27.20;;;6.55;;
74577;SDS011;75151;49.086;33.418;2024-02-28T11:44:16;21.65;;;6.50;;
74577;SDS011;75151;49.086;33.418;2024-02-28T11:46:47;23.58;;;6.55;;
74577;SDS011;75151;49.086;33.418;2024-02-28T11:49:15;28.85;;;7.55;;
74577;SDS011;75151;49.086;33.418;2024-02-28T11:51:43;28.42;;;7.57;;
74577;SDS011;75151;49.086;33.418;2024-02-28T11:54:10;41.13;;;9.00;;
74577;SDS011;75151;49.086;33.418;2024-02-28T11:56:38;19.58;;;6.75;;
74577;SDS011;75151;49.086;33.418;2024-02-28T11:59:06;29.58;;;6.65;;
74577;SDS011;75151;49.086;33.418;2024-02-28T12:01:33;29.77;;;6.53;;
74577;SDS011;75151;49.086;33.418;2024-02-28T12:04:13;25.60;;;7.10;;
74577;SDS011;75151;49.086;33.418;2024-02-28T12:06:40;23.92;;;6.82;;
74577;SDS011;75151;49.086;33.418;2024-02-28T12:09:08;23.90;;;6.65;;
74577;SDS011;75151;49.086;33.418;2024-02-28T12:11:50;45.28;;;7.80;;
74577;SDS011;75151;49.086;33.418;2024-02-28T12:14:16;23.40;;;6.88;;
74577;SDS011;75151;49.086;33.418;2024-02-28T12:16:43;26.08;;;6.38;;
74577;SDS011;75151;49.086;33.418;2024-02-28T12:19:12;35.00;;;7.85;;
74577;SDS011;75151;49.086;33.418;2024-02-28T12:21:42;27.55;;;6.60;;
74577;SDS011;75151;49.086;33.418;2024-02-28T12:24:10;20.00;;;5.82;;
74577;SDS011;75151;49.086;33.418;2024-02-28T12:26:38;29.15;;;7.10;;
74577;SDS011;75151;49.086;33.418;2024-02-28T12:29:05;32.75;;;5.85;;
74577;SDS011;75151;49.086;33.418;2024-02-28T12:31:33;19.15;;;6.10;;
74577;SDS011;75151;49.086;33.418;2024-02-28T12:34:00;22.17;;;6.63;;
74577;SDS011;75151;49.086;33.418;2024-02-28T12:36:27;33.95;;;7.18;;
74577;SDS011;75151;49.086;33.418;2024-02-28T12:38:54;21.88;;;6.32;;
74577;SDS011;75151;49.086;33.418;2024-02-28T12:41:20;15.50;;;5.35;;
74577;SDS011;75151;49.086;33.418;2024-02-28T12:43:47;27.98;;;6.28;;
74577;SDS011;75151;49.086;33.418;2024-02-28T12:46:14;24.85;;;6.28;;
74577;SDS011;75151;49.086;33.418;2024-02-28T12:48:41;14.45;;;5.38;;
74577;SDS011;75151;49.086;33.418;2024-02-28T12:51:09;24.95;;;5.90;;
74577;SDS011;75151;49.086;33.418;2024-02-28T12:53:37;18.65;;;5.93;;
74577;SDS011;75151;49.086;33.418;2024-02-28T12:56:04;22.70;;;6.72;;
74577;SDS011;75151;49.086;33.418;2024-02-28T12:58:32;26.13;;;6.78;;
74577;SDS011;75151;49.086;33.418;2024-02-28T13:00:58;23.15;;;5.97;;
74577;SDS011;75151;49.086;33.418;2024-02-28T13:03:25;30.17;;;6.65;;
74577;SDS011;75151;49.086;33.418;2024-02-28T13:05:52;22.95;;;6.05;;
74577;SDS011;75151;49.086;33.418;2024-02-28T13:08:19;20.23;;;6.60;;
74577;SDS011;75151;49.086;33.418;2024-02-28T13:10:46;31.08;;;9.07;;
74577;SDS011;75151;49.086;33.418;2024-02-28T13:13:13;19.67;;;6.93;;
74577;SDS011;75151;49.086;33.418;2024-02-28T13:15:40;26.40;;;6.97;;
74577;SDS011;75151;49.086;33.418;2024-02-28T13:18:07;23.88;;;5.40;;
74577;SDS011;75151;49.086;33.418;2024-02-28T13:20:37;22.63;;;5.45;;
74577;SDS011;75151;49.086;33.418;2024-02-28T13:23:04;20.70;;;6.28;;
74577;SDS011;75151;49.086;33.418;2024-02-28T13:25:31;18.67;;;6.18;;
74577;SDS011;75151;49.086;33.418;2024-02-28T13:27:58;21.40;;;7.07;;
74577;SDS011;75151;49.086;33.418;2024-02-28T13:30:25;21.35;;;5.93;;
74577;SDS011;75151;49.086;33.418;2024-02-28T13:32:52;24.83;;;8.90;;
74577;SDS011;75151;49.086;33.418;2024-02-28T13:35:19;21.38;;;6.22;;
74577;SDS011;75151;49.086;33.418;2024-02-28T13:37:46;27.77;;;6.97;;
74577;SDS011;75151;49.086;33.418;2024-02-28T13:40:12;22.48;;;7.00;;
74577;SDS011;75151;49.086;33.418;2024-02-28T13:42:39;23.05;;;6.15;;
74577;SDS011;75151;49.086;33.418;2024-02-28T13:45:07;20.75;;;6.05;;
74577;SDS011;75151;49.086;33.418;2024-02-28T13:47:35;22.40;;;6.45;;
74577;SDS011;75151;49.086;33.418;2024-02-28T13:50:02;20.30;;;6.95;;
74577;SDS011;75151;49.086;33.418;2024-02-28T13:52:29;22.67;;;6.65;;
74577;SDS011;75151;49.086;33.418;2024-02-28T13:54:58;21.63;;;6.28;;
74577;SDS011;75151;49.086;33.418;2024-02-28T13:57:25;22.77;;;5.32;;
74577;SDS011;75151;49.086;33.418;2024-02-28T13:59:52;29.05;;;6.85;;
74577;SDS011;75151;49.086;33.418;2024-02-28T14:02:21;24.33;;;5.85;;
74577;SDS011;75151;49.086;33.418;2024-02-28T14:04:49;25.15;;;5.43;;
74577;SDS011;75151;49.086;33.418;2024-02-28T14:07:15;40.45;;;6.40;;
74577;SDS011;75151;49.086;33.418;2024-02-28T14:09:42;26.25;;;6.03;;
74577;SDS011;75151;49.086;33.418;2024-02-28T14:12:12;24.65;;;6.93;;
74577;SDS011;75151;49.086;33.418;2024-02-28T14:14:40;24.25;;;6.95;;
74577;SDS011;75151;49.086;33.418;2024-02-28T14:17:07;20.30;;;5.57;;
74577;SDS011;75151;49.086;33.418;2024-02-28T14:19:34;21.17;;;6.03;;
74577;SDS011;75151;49.086;33.418;2024-02-28T14:22:04;30.90;;;7.10;;
74577;SDS011;75151;49.086;33.418;2024-02-28T14:24:31;33.58;;;6.32;;
74577;SDS011;75151;49.086;33.418;2024-02-28T14:26:58;32.63;;;6.50;;